createdAt,value
2018-09-12T00:00:04.151Z,0.00
2018-09-12T00:01:04.146Z,0.00
2018-09-12T00:02:04.140Z,0.00
2018-09-12T00:03:04.135Z,0.00
2018-09-12T00:04:04.130Z,0.00
2018-09-12T00:05:04.125Z,0.00
2018-09-12T00:06:04.125Z,0.00
2018-09-12T00:07:04.113Z,0.00
2018-09-12T00:08:04.108Z,0.00
2018-09-12T00:09:04.103Z,0.00
2018-09-12T00:10:04.097Z,0.00
2018-09-12T00:11:04.092Z,0.00
2018-09-12T00:12:04.089Z,0.00
2018-09-12T00:13:04.081Z,0.00
2018-09-12T00:14:04.075Z,0.00
2018-09-12T00:15:04.070Z,0.00
2018-09-12T00:16:04.064Z,0.00
2018-09-12T00:17:04.060Z,0.00
2018-09-12T00:18:04.053Z,0.00
2018-09-12T00:19:04.048Z,0.00
2018-09-12T00:20:04.043Z,0.00
2018-09-12T00:21:04.048Z,0.00
2018-09-12T00:22:04.032Z,0.00
2018-09-12T00:23:04.026Z,0.00
2018-09-12T00:24:04.025Z,0.00
2018-09-12T00:25:04.016Z,0.00
2018-09-12T00:26:04.011Z,0.00
2018-09-12T00:27:04.006Z,0.00
2018-09-12T00:28:04.003Z,0.00
2018-09-12T00:29:03.994Z,0.00
2018-09-12T00:30:03.988Z,0.00
2018-09-12T00:31:03.984Z,0.00
2018-09-12T00:32:03.978Z,0.00
2018-09-12T00:33:03.971Z,0.00
2018-09-12T00:34:03.967Z,0.00
2018-09-12T00:35:03.961Z,0.00
2018-09-12T00:36:04.006Z,0.00
2018-09-12T00:37:03.950Z,0.00
2018-09-12T00:38:03.944Z,0.00
2018-09-12T00:39:03.939Z,0.00
2018-09-12T00:40:03.934Z,0.00
2018-09-12T00:41:03.928Z,0.00
2018-09-12T00:42:03.922Z,0.00
2018-09-12T00:43:03.916Z,0.00
2018-09-12T00:44:03.911Z,0.00
2018-09-12T00:45:03.906Z,0.00
2018-09-12T00:46:03.899Z,0.00
2018-09-12T00:47:03.899Z,0.00
2018-09-12T00:48:03.889Z,0.00
2018-09-12T00:49:03.884Z,0.00
2018-09-12T00:50:03.878Z,0.00
2018-09-12T00:51:03.872Z,0.00
2018-09-12T00:52:03.867Z,0.00
2018-09-12T00:53:03.862Z,0.00
2018-09-12T00:54:03.855Z,0.00
2018-09-12T00:55:03.849Z,0.00
2018-09-12T00:56:03.844Z,0.00
2018-09-12T00:57:03.842Z,0.00
2018-09-12T00:58:03.832Z,0.00
2018-09-12T00:59:03.826Z,0.00
2018-09-12T01:00:03.832Z,0.00
2018-09-12T01:01:03.815Z,0.00
2018-09-12T01:02:03.819Z,0.00
2018-09-12T01:03:03.803Z,0.00
2018-09-12T01:04:03.799Z,0.00
2018-09-12T01:05:03.793Z,0.00
2018-09-12T01:06:03.786Z,0.00
2018-09-12T01:07:03.781Z,0.00
2018-09-12T01:08:03.775Z,0.00
2018-09-12T01:09:03.770Z,0.00
2018-09-12T01:10:03.763Z,0.00
2018-09-12T01:11:03.758Z,0.00
2018-09-12T01:12:03.753Z,0.00
2018-09-12T01:13:03.748Z,0.00
2018-09-12T01:14:03.741Z,0.00
2018-09-12T01:15:03.735Z,0.00
2018-09-12T01:16:03.729Z,0.00
2018-09-12T01:17:03.724Z,0.00
2018-09-12T01:18:03.718Z,0.00
2018-09-12T01:19:03.712Z,0.00
2018-09-12T01:20:03.706Z,0.00
2018-09-12T01:21:03.707Z,0.00
2018-09-12T01:22:03.698Z,0.00
2018-09-12T01:23:03.689Z,0.00
2018-09-12T01:24:03.684Z,0.00
2018-09-12T01:25:03.681Z,0.00
2018-09-12T01:26:03.672Z,0.00
2018-09-12T01:27:03.666Z,0.00
2018-09-12T01:28:03.660Z,0.00
2018-09-12T01:29:03.659Z,0.00
2018-09-12T01:30:03.652Z,0.00
2018-09-12T01:31:03.643Z,0.00
2018-09-12T01:32:03.638Z,0.00
2018-09-12T01:33:03.632Z,0.00
2018-09-12T01:34:03.625Z,0.00
2018-09-12T01:35:03.620Z,0.00
2018-09-12T01:36:03.616Z,0.00
2018-09-12T01:37:03.608Z,0.00
2018-09-12T01:38:03.602Z,0.00
2018-09-12T01:39:03.599Z,0.00
2018-09-12T01:40:03.591Z,0.00
2018-09-12T01:41:03.587Z,0.00
2018-09-12T01:42:03.578Z,0.00
2018-09-12T01:43:03.573Z,0.00
2018-09-12T01:44:03.566Z,0.00
2018-09-12T01:45:03.561Z,0.00
2018-09-12T01:46:03.553Z,0.00
2018-09-12T01:47:03.580Z,0.00
2018-09-12T01:48:03.543Z,0.00
2018-09-12T01:49:03.537Z,0.00
2018-09-12T01:50:03.531Z,0.00
2018-09-12T01:51:03.525Z,0.00
2018-09-12T01:52:03.519Z,0.00
2018-09-12T01:53:03.512Z,0.00
2018-09-12T01:54:03.505Z,0.00
2018-09-12T01:55:03.500Z,0.00
2018-09-12T01:56:03.497Z,0.00
2018-09-12T01:57:03.491Z,0.00
2018-09-12T01:58:03.485Z,0.00
2018-09-12T01:59:03.476Z,0.00
2018-09-12T02:00:03.476Z,0.00
2018-09-12T02:01:03.465Z,0.00
2018-09-12T02:02:03.458Z,0.00
2018-09-12T02:03:03.453Z,0.00
2018-09-12T02:04:03.447Z,0.00
2018-09-12T02:05:03.441Z,0.00
2018-09-12T02:06:03.434Z,0.00
2018-09-12T02:07:03.428Z,0.00
2018-09-12T02:08:03.424Z,0.00
2018-09-12T02:09:03.417Z,0.00
2018-09-12T02:10:03.411Z,0.00
2018-09-12T02:11:03.404Z,0.00
2018-09-12T02:12:03.400Z,0.00
2018-09-12T02:13:03.395Z,0.00
2018-09-12T02:14:03.385Z,0.00
2018-09-12T02:15:03.380Z,0.00
2018-09-12T02:16:03.374Z,0.00
2018-09-12T02:17:03.368Z,0.00
2018-09-12T02:18:03.361Z,0.00
2018-09-12T02:19:03.354Z,0.00
2018-09-12T02:20:03.350Z,0.00
2018-09-12T02:21:03.344Z,0.00
2018-09-12T02:22:03.337Z,0.00
2018-09-12T02:23:03.331Z,0.00
2018-09-12T02:24:03.333Z,0.00
2018-09-12T02:25:03.320Z,0.00
2018-09-12T02:26:03.313Z,0.00
2018-09-12T02:27:03.311Z,0.00
2018-09-12T02:28:03.301Z,0.00
2018-09-12T02:29:03.497Z,0.00
2018-09-12T02:30:03.300Z,0.00
2018-09-12T02:31:03.287Z,0.00
2018-09-12T02:32:03.277Z,0.00
2018-09-12T02:33:03.272Z,0.00
2018-09-12T02:34:03.264Z,0.00
2018-09-12T02:35:03.258Z,0.00
2018-09-12T02:36:03.251Z,0.00
2018-09-12T02:37:03.249Z,0.00
2018-09-12T02:38:03.243Z,0.00
2018-09-12T02:39:03.234Z,0.00
2018-09-12T02:40:03.227Z,0.00
2018-09-12T02:41:03.224Z,0.00
2018-09-12T02:42:03.215Z,0.00
2018-09-12T02:43:03.209Z,0.00
2018-09-12T02:44:03.202Z,0.00
2018-09-12T02:45:03.196Z,0.00
2018-09-12T02:46:03.192Z,0.00
2018-09-12T02:47:03.184Z,0.00
2018-09-12T02:48:03.178Z,0.00
2018-09-12T02:49:03.172Z,0.00
2018-09-12T02:50:03.166Z,0.00
2018-09-12T02:51:03.159Z,0.00
2018-09-12T02:52:03.158Z,0.00
2018-09-12T02:53:03.147Z,0.00
2018-09-12T02:54:03.140Z,0.00
2018-09-12T02:55:03.139Z,0.00
2018-09-12T02:56:03.129Z,0.00
2018-09-12T02:57:03.122Z,0.00
2018-09-12T02:58:03.116Z,0.00
2018-09-12T02:59:03.110Z,0.00
2018-09-12T03:00:03.113Z,0.00
2018-09-12T03:01:03.098Z,0.00
2018-09-12T03:02:03.092Z,0.00
2018-09-12T03:03:03.085Z,0.00
2018-09-12T03:04:03.078Z,0.00
2018-09-12T03:05:03.076Z,0.00
2018-09-12T03:06:03.069Z,0.00
2018-09-12T03:07:03.063Z,0.00
2018-09-12T03:08:03.099Z,0.00
2018-09-12T03:09:03.049Z,0.00
2018-09-12T03:10:03.041Z,0.00
2018-09-12T03:11:03.035Z,0.00
2018-09-12T03:12:03.029Z,0.00
2018-09-12T03:13:03.026Z,0.00
2018-09-12T03:14:03.016Z,0.00
2018-09-12T03:15:03.012Z,0.00
2018-09-12T03:16:03.011Z,0.00
2018-09-12T03:17:02.999Z,0.00
2018-09-12T03:18:02.992Z,0.00
2018-09-12T03:19:02.985Z,0.00
2018-09-12T03:20:02.979Z,0.00
2018-09-12T03:21:03.129Z,0.00
2018-09-12T03:22:02.966Z,0.00
2018-09-12T03:23:02.960Z,0.00
2018-09-12T03:24:02.953Z,0.00
2018-09-12T03:25:02.948Z,0.00
2018-09-12T03:26:02.942Z,0.00
2018-09-12T03:27:03.185Z,0.00
2018-09-12T03:28:02.929Z,0.00
2018-09-12T03:29:02.925Z,0.00
2018-09-12T03:30:02.914Z,0.00
2018-09-12T03:31:02.912Z,0.00
2018-09-12T03:32:02.904Z,0.00
2018-09-12T03:33:02.899Z,0.00
2018-09-12T03:34:02.890Z,0.00
2018-09-12T03:35:02.894Z,0.00
2018-09-12T03:36:02.878Z,0.00
2018-09-12T03:37:02.871Z,0.00
2018-09-12T03:38:02.865Z,0.00
2018-09-12T03:39:02.863Z,0.00
2018-09-12T03:40:02.854Z,0.00
2018-09-12T03:41:02.846Z,0.00
2018-09-12T03:42:02.855Z,0.00
2018-09-12T03:43:02.836Z,0.00
2018-09-12T03:44:02.827Z,0.00
2018-09-12T03:45:02.820Z,0.00
2018-09-12T03:46:02.814Z,0.00
2018-09-12T03:47:02.807Z,0.00
2018-09-12T03:48:02.872Z,0.00
2018-09-12T03:49:02.800Z,0.00
2018-09-12T03:50:02.787Z,0.00
2018-09-12T03:51:02.783Z,0.00
2018-09-12T03:52:02.775Z,0.00
2018-09-12T03:53:02.769Z,0.00
2018-09-12T03:54:02.761Z,0.00
2018-09-12T03:55:02.756Z,0.00
2018-09-12T03:56:02.750Z,0.00
2018-09-12T03:57:02.744Z,0.00
2018-09-12T03:58:02.736Z,0.00
2018-09-12T03:59:02.734Z,0.00
2018-09-12T04:00:02.726Z,0.00
2018-09-12T04:01:02.716Z,0.00
2018-09-12T04:02:02.711Z,0.00
2018-09-12T04:03:02.705Z,0.00
2018-09-12T04:04:02.697Z,0.00
2018-09-12T04:05:02.692Z,0.00
2018-09-12T04:06:02.685Z,0.00
2018-09-12T04:07:02.678Z,0.00
2018-09-12T04:08:02.672Z,0.00
2018-09-12T04:09:02.666Z,0.00
2018-09-12T04:10:02.663Z,0.00
2018-09-12T04:11:02.652Z,0.00
2018-09-12T04:12:02.646Z,0.00
2018-09-12T04:13:02.649Z,0.00
2018-09-12T04:14:02.632Z,0.00
2018-09-12T04:15:02.632Z,0.00
2018-09-12T04:16:02.620Z,0.00
2018-09-12T04:17:02.749Z,0.00
2018-09-12T04:18:02.608Z,0.00
2018-09-12T04:19:02.602Z,0.00
2018-09-12T04:20:02.597Z,0.00
2018-09-12T04:21:02.591Z,0.00
2018-09-12T04:22:02.582Z,0.00
2018-09-12T04:23:02.574Z,0.00
2018-09-12T04:24:02.573Z,0.00
2018-09-12T04:25:02.581Z,0.00
2018-09-12T04:26:02.554Z,0.00
2018-09-12T04:27:02.548Z,0.00
2018-09-12T04:28:02.543Z,0.00
2018-09-12T04:29:02.536Z,0.00
2018-09-12T04:30:02.530Z,0.00
2018-09-12T04:31:02.521Z,0.00
2018-09-12T04:32:02.516Z,0.00
2018-09-12T04:33:02.509Z,0.00
2018-09-12T04:34:02.502Z,0.00
2018-09-12T04:35:02.495Z,4.00
2018-09-12T04:36:02.489Z,4.00
2018-09-12T04:37:02.483Z,4.00
2018-09-12T04:38:02.475Z,0.00
2018-09-12T04:39:02.469Z,4.00
2018-09-12T04:40:02.462Z,4.00
2018-09-12T04:41:02.462Z,8.00
2018-09-12T04:42:02.464Z,8.00
2018-09-12T04:43:02.445Z,8.00
2018-09-12T04:45:02.435Z,12.00
2018-09-12T04:46:02.422Z,16.00
2018-09-12T04:47:02.420Z,16.00
2018-09-12T04:48:02.411Z,20.00
2018-09-12T04:49:02.402Z,28.00
2018-09-12T04:50:02.395Z,32.00
2018-09-12T04:51:02.390Z,36.00
2018-09-12T04:52:03.582Z,40.00
2018-09-12T04:53:02.376Z,44.00
2018-09-12T04:54:02.369Z,56.00
2018-09-12T04:55:02.364Z,64.00
2018-09-12T04:56:02.357Z,72.00
2018-09-12T04:57:02.350Z,84.00
2018-09-12T04:58:02.343Z,92.00
2018-09-12T04:59:02.342Z,104.00
2018-09-12T05:00:02.333Z,116.00
2018-09-12T05:01:02.330Z,132.00
2018-09-12T05:02:02.316Z,144.00
2018-09-12T05:03:02.320Z,160.00
2018-09-12T05:04:02.304Z,176.00
2018-09-12T05:05:02.320Z,192.00
2018-09-12T05:06:02.295Z,212.00
2018-09-12T05:07:02.282Z,228.00
2018-09-12T05:08:02.282Z,248.00
2018-09-12T05:09:02.272Z,268.00
2018-09-12T05:10:02.308Z,292.00
2018-09-12T05:11:02.260Z,312.00
2018-09-12T05:12:02.255Z,340.00
2018-09-12T05:13:02.243Z,364.00
2018-09-12T05:14:02.235Z,392.00
2018-09-12T05:15:02.229Z,416.00
2018-09-12T05:16:02.299Z,444.00
2018-09-12T05:17:02.221Z,468.00
2018-09-12T05:18:02.213Z,496.00
2018-09-12T05:19:02.202Z,524.00
2018-09-12T05:20:02.196Z,552.00
2018-09-12T05:21:02.194Z,580.00
2018-09-12T05:22:02.181Z,612.00
2018-09-12T05:23:02.175Z,640.00
2018-09-12T05:24:02.169Z,668.00
2018-09-12T05:25:02.163Z,700.00
2018-09-12T05:26:02.157Z,732.00
2018-09-12T05:27:02.151Z,760.00
2018-09-12T05:28:02.144Z,792.00
2018-09-12T05:29:02.137Z,824.00
2018-09-12T05:30:02.130Z,856.00
2018-09-12T05:31:02.123Z,888.00
2018-09-12T05:32:02.118Z,920.00
2018-09-12T05:33:02.115Z,948.00
2018-09-12T05:34:03.518Z,980.00
2018-09-12T05:35:02.109Z,1004.00
2018-09-12T05:36:02.096Z,1036.00
2018-09-12T05:37:02.286Z,1068.00
2018-09-12T05:38:02.078Z,1096.00
2018-09-12T05:39:02.074Z,1128.00
2018-09-12T05:40:02.065Z,1156.00
2018-09-12T05:41:02.060Z,1184.00
2018-09-12T05:42:02.054Z,1220.00
2018-09-12T05:43:02.046Z,1248.00
2018-09-12T05:44:02.040Z,1276.00
2018-09-12T05:45:02.040Z,1308.00
2018-09-12T05:46:02.028Z,1336.00
2018-09-12T05:47:02.018Z,1364.00
2018-09-12T05:48:02.014Z,1392.00
2018-09-12T05:49:02.007Z,1420.00
2018-09-12T05:50:02.052Z,1452.00
2018-09-12T05:51:01.996Z,1484.00
2018-09-12T05:52:01.986Z,1516.00
2018-09-12T05:53:01.985Z,1548.00
2018-09-12T05:54:01.974Z,1576.00
2018-09-12T05:55:01.980Z,1612.00
2018-09-12T05:56:01.962Z,1644.00
2018-09-12T05:57:01.955Z,1676.00
2018-09-12T05:58:01.950Z,1708.00
2018-09-12T05:59:01.943Z,1744.00
2018-09-12T06:00:01.937Z,1776.00
2018-09-12T06:01:01.931Z,1804.00
2018-09-12T06:02:01.924Z,1836.00
2018-09-12T06:03:01.917Z,1872.00
2018-09-12T06:04:01.912Z,1916.00
2018-09-12T06:05:01.911Z,1968.00
2018-09-12T06:06:01.902Z,2016.00
2018-09-12T06:07:02.039Z,2068.00
2018-09-12T06:08:01.887Z,2120.00
2018-09-12T06:09:01.890Z,2184.00
2018-09-12T06:10:01.876Z,2260.00
2018-09-12T06:11:01.873Z,2308.00
2018-09-12T06:12:01.870Z,2348.00
2018-09-12T06:13:01.858Z,2388.00
2018-09-12T06:14:01.880Z,2432.00
2018-09-12T06:15:01.844Z,2480.00
2018-09-12T06:16:01.841Z,2524.00
2018-09-12T06:17:01.833Z,2556.00
2018-09-12T06:18:01.826Z,2592.00
2018-09-12T06:19:01.821Z,2640.00
2018-09-12T06:20:01.816Z,2688.00
2018-09-12T06:21:01.813Z,2748.00
2018-09-12T06:22:01.803Z,2788.00
2018-09-12T06:23:01.798Z,2836.00
2018-09-12T06:24:01.792Z,2880.00
2018-09-12T06:25:01.790Z,2936.00
2018-09-12T06:26:01.783Z,2992.00
2018-09-12T06:27:01.784Z,3056.00
2018-09-12T06:28:01.774Z,3120.00
2018-09-12T06:29:01.764Z,3192.00
2018-09-12T06:30:01.962Z,3244.00
2018-09-12T06:31:01.756Z,3312.00
2018-09-12T06:32:01.748Z,3360.00
2018-09-12T06:33:01.742Z,3408.00
2018-09-12T06:34:01.741Z,3456.00
2018-09-12T06:35:01.731Z,3496.00
2018-09-12T06:36:01.728Z,3568.00
2018-09-12T06:37:01.724Z,3612.00
2018-09-12T06:38:01.718Z,3656.00
2018-09-12T06:39:01.714Z,3712.00
2018-09-12T06:40:01.713Z,3756.00
2018-09-12T06:41:01.698Z,3780.00
2018-09-12T06:42:01.695Z,3820.00
2018-09-12T06:43:01.688Z,3872.00
2018-09-12T06:44:01.687Z,3932.00
2018-09-12T06:45:01.679Z,3988.00
2018-09-12T06:46:01.674Z,4036.00
2018-09-12T06:47:01.675Z,3444.00
2018-09-12T06:48:01.664Z,3496.00
2018-09-12T06:49:01.658Z,3564.00
2018-09-12T06:50:01.855Z,3612.00
2018-09-12T06:51:01.650Z,3656.00
2018-09-12T06:52:01.643Z,3696.00
2018-09-12T06:53:01.643Z,3752.00
2018-09-12T06:54:01.635Z,3788.00
2018-09-12T06:55:01.627Z,3824.00
2018-09-12T06:56:01.629Z,3860.00
2018-09-12T06:57:01.618Z,3900.00
2018-09-12T06:58:01.612Z,3952.00
2018-09-12T06:59:01.611Z,4004.00
2018-09-12T07:00:01.603Z,4064.00
2018-09-12T07:01:01.716Z,4120.00
2018-09-12T07:02:01.594Z,4196.00
2018-09-12T07:03:01.588Z,4260.00
2018-09-12T07:04:01.584Z,4340.00
2018-09-12T07:05:01.578Z,4392.00
2018-09-12T07:06:01.574Z,4456.00
2018-09-12T07:07:01.569Z,4552.00
2018-09-12T07:08:01.565Z,4660.00
2018-09-12T07:09:01.560Z,4732.00
2018-09-12T07:10:01.558Z,4864.00
2018-09-12T07:11:01.550Z,5956.00
2018-09-12T07:12:01.551Z,6376.00
2018-09-12T07:13:01.544Z,5572.00
2018-09-12T07:14:01.584Z,8560.00
2018-09-12T07:15:01.534Z,9804.00
2018-09-12T07:16:01.730Z,8668.00
2018-09-12T07:17:01.524Z,9012.00
2018-09-12T07:18:01.519Z,11644.00
2018-09-12T07:19:01.517Z,11768.00
2018-09-12T07:20:01.511Z,9668.00
2018-09-12T07:21:01.513Z,9648.00
2018-09-12T07:22:01.506Z,10676.00
2018-09-12T07:23:01.504Z,12088.00
2018-09-12T07:24:01.496Z,10780.00
2018-09-12T07:25:01.695Z,11516.00
2018-09-12T07:26:01.489Z,11784.00
2018-09-12T07:27:01.688Z,10820.00
2018-09-12T07:28:01.483Z,10032.00
2018-09-12T07:29:01.480Z,8516.00
2018-09-12T07:30:01.476Z,9624.00
2018-09-12T07:31:01.474Z,10720.00
2018-09-12T07:32:01.471Z,11388.00
2018-09-12T07:33:01.468Z,9668.00
2018-09-12T07:34:01.471Z,12660.00
2018-09-12T07:35:01.663Z,6808.00
2018-09-12T07:36:01.461Z,6540.00
2018-09-12T07:37:01.457Z,10736.00
2018-09-12T07:38:01.457Z,11124.00
2018-09-12T07:39:01.453Z,11156.00
2018-09-12T07:40:01.653Z,11192.00
2018-09-12T07:41:01.449Z,10800.00
2018-09-12T07:42:01.448Z,10804.00
2018-09-12T07:43:01.449Z,10920.00
2018-09-12T07:44:01.450Z,10876.00
2018-09-12T07:45:01.449Z,11024.00
2018-09-12T07:46:01.445Z,11044.00
2018-09-12T07:47:01.445Z,11136.00
2018-09-12T07:48:01.445Z,11180.00
2018-09-12T07:49:01.511Z,11168.00
2018-09-12T07:50:01.448Z,11388.00
2018-09-12T07:51:01.455Z,11440.00
2018-09-12T07:52:01.451Z,11436.00
2018-09-12T07:53:01.455Z,11444.00
2018-09-12T07:54:01.454Z,11548.00
2018-09-12T07:55:01.456Z,11696.00
2018-09-12T07:56:01.598Z,11744.00
2018-09-12T07:57:01.662Z,11892.00
2018-09-12T07:58:01.463Z,11808.00
2018-09-12T07:59:01.481Z,11884.00
2018-09-12T08:00:01.550Z,11980.00
2018-09-12T08:01:01.475Z,11976.00
2018-09-12T08:02:01.479Z,12140.00
2018-09-12T08:03:01.686Z,12080.00
2018-09-12T08:04:01.485Z,12132.00
2018-09-12T08:05:01.521Z,12208.00
2018-09-12T08:06:01.695Z,12284.00
2018-09-12T08:07:01.699Z,12268.00
2018-09-12T08:08:01.502Z,12384.00
2018-09-12T08:09:01.507Z,12548.00
2018-09-12T08:10:01.511Z,12720.00
2018-09-12T08:11:01.521Z,12744.00
2018-09-12T08:12:01.533Z,12772.00
2018-09-12T08:13:01.527Z,12948.00
2018-09-12T08:14:01.530Z,13008.00
2018-09-12T08:15:01.540Z,13056.00
2018-09-12T08:16:01.543Z,13220.00
2018-09-12T08:17:01.604Z,13248.00
2018-09-12T08:18:01.554Z,13288.00
2018-09-12T08:19:01.660Z,13356.00
2018-09-12T08:20:01.566Z,13572.00
2018-09-12T08:21:01.572Z,13720.00
2018-09-12T08:22:01.579Z,13812.00
2018-09-12T08:23:01.582Z,13948.00
2018-09-12T08:24:01.590Z,13984.00
2018-09-12T08:25:01.597Z,14036.00
2018-09-12T08:26:01.810Z,14112.00
2018-09-12T08:27:01.610Z,14156.00
2018-09-12T08:28:01.621Z,14176.00
2018-09-12T08:29:01.624Z,14204.00
2018-09-12T08:30:01.631Z,14328.00
2018-09-12T08:31:01.638Z,14380.00
2018-09-12T08:32:01.646Z,14496.00
2018-09-12T08:33:01.655Z,14608.00
2018-09-12T08:34:01.666Z,14624.00
2018-09-12T08:35:01.667Z,14740.00
2018-09-12T08:36:01.676Z,14684.00
2018-09-12T08:37:01.689Z,14700.00
2018-09-12T08:38:01.691Z,14852.00
2018-09-12T08:39:01.737Z,14840.00
2018-09-12T08:40:01.707Z,14572.00
2018-09-12T08:41:02.127Z,15060.00
2018-09-12T08:42:01.765Z,15552.00
2018-09-12T08:43:01.739Z,15392.00
2018-09-12T08:44:01.743Z,15180.00
2018-09-12T08:45:01.749Z,15904.00
2018-09-12T08:46:01.762Z,16032.00
2018-09-12T08:47:01.766Z,16000.00
2018-09-12T08:48:01.774Z,16128.00
2018-09-12T08:49:01.786Z,16288.00
2018-09-12T08:50:01.794Z,16736.00
2018-09-12T08:51:01.805Z,16928.00
2018-09-12T08:52:01.813Z,16224.00
2018-09-12T08:53:01.904Z,12308.00
2018-09-12T08:54:01.823Z,16320.00
2018-09-12T08:55:01.832Z,16384.00
2018-09-12T08:56:01.839Z,16640.00
2018-09-12T08:57:01.849Z,16672.00
2018-09-12T08:58:01.861Z,16608.00
2018-09-12T08:59:01.867Z,16800.00
2018-09-12T09:00:01.872Z,16832.00
2018-09-12T09:01:01.880Z,16864.00
2018-09-12T09:02:02.091Z,17152.00
2018-09-12T09:03:01.898Z,17312.00
2018-09-12T09:04:01.957Z,17472.00
2018-09-12T09:05:01.914Z,17504.00
2018-09-12T09:06:01.922Z,17568.00
2018-09-12T09:07:01.936Z,17824.00
2018-09-12T09:08:01.951Z,17952.00
2018-09-12T09:09:01.950Z,17952.00
2018-09-12T09:11:01.967Z,17920.00
2018-09-12T09:12:01.977Z,18080.00
2018-09-12T09:13:01.988Z,17792.00
2018-09-12T09:14:01.994Z,18080.00
2018-09-12T09:15:02.004Z,18112.00
2018-09-12T09:16:02.018Z,18112.00
2018-09-12T09:17:02.022Z,18368.00
2018-09-12T09:18:02.034Z,18080.00
2018-09-12T09:19:02.041Z,18368.00
2018-09-12T09:20:02.253Z,18432.00
2018-09-12T09:21:02.059Z,18336.00
2018-09-12T09:22:02.069Z,18464.00
2018-09-12T09:23:02.076Z,18624.00
2018-09-12T09:24:02.288Z,18848.00
2018-09-12T09:25:02.097Z,18880.00
2018-09-12T09:26:02.105Z,19872.00
2018-09-12T09:27:02.118Z,20672.00
2018-09-12T09:28:02.127Z,19776.00
2018-09-12T09:29:02.341Z,19200.00
2018-09-12T09:30:02.149Z,19232.00
2018-09-12T09:31:02.159Z,18784.00
2018-09-12T09:33:02.176Z,18944.00
2018-09-12T09:34:02.187Z,19296.00
2018-09-12T09:35:02.297Z,18688.00
2018-09-12T09:36:02.204Z,18496.00
2018-09-12T09:37:02.213Z,18560.00
2018-09-12T09:38:02.230Z,18752.00
2018-09-12T09:39:02.234Z,18560.00
2018-09-12T09:40:02.246Z,18624.00
2018-09-12T09:41:02.474Z,19136.00
2018-09-12T09:42:02.263Z,19136.00
2018-09-12T09:43:02.476Z,18720.00
2018-09-12T09:44:02.298Z,19104.00
2018-09-12T09:45:02.297Z,18976.00
2018-09-12T09:46:02.307Z,18944.00
2018-09-12T09:47:02.314Z,19040.00
2018-09-12T09:48:02.390Z,18784.00
2018-09-12T09:49:02.336Z,19424.00
2018-09-12T09:50:02.353Z,18912.00
2018-09-12T09:51:02.562Z,18784.00
2018-09-12T09:52:02.774Z,19072.00
2018-09-12T09:53:02.377Z,20128.00
2018-09-12T09:54:02.388Z,19680.00
2018-09-12T09:55:02.463Z,19616.00
2018-09-12T09:56:02.410Z,19360.00
2018-09-12T09:57:02.420Z,19296.00
2018-09-12T09:58:02.431Z,19808.00
2018-09-12T09:59:02.692Z,19936.00
2018-09-12T10:00:02.453Z,19968.00
2018-09-12T10:01:02.464Z,20800.00
2018-09-12T10:02:02.474Z,19584.00
2018-09-12T10:03:02.488Z,19648.00
2018-09-12T10:04:02.698Z,20736.00
2018-09-12T10:05:02.508Z,20032.00
2018-09-12T10:06:02.586Z,23072.00
2018-09-12T10:07:02.531Z,23488.00
2018-09-12T10:08:02.545Z,25056.00
2018-09-12T10:09:02.559Z,24800.00
2018-09-12T10:10:02.569Z,27456.00
2018-09-12T10:11:02.583Z,27136.00
2018-09-12T10:12:02.593Z,25984.00
2018-09-12T10:13:02.612Z,25056.00
2018-09-12T10:14:02.613Z,24960.00
2018-09-12T10:15:02.626Z,27040.00
2018-09-12T10:16:02.640Z,26528.00
2018-09-12T10:17:02.654Z,15784.00
2018-09-12T10:18:02.665Z,26880.00
2018-09-12T10:19:02.683Z,23136.00
2018-09-12T10:20:02.689Z,11468.00
2018-09-12T10:21:02.704Z,13444.00
2018-09-12T10:22:02.711Z,15840.00
2018-09-12T10:23:02.718Z,15904.00
2018-09-12T10:24:02.733Z,13188.00
2018-09-12T10:25:02.738Z,12676.00
2018-09-12T10:26:02.746Z,12000.00
2018-09-12T10:27:02.753Z,12540.00
2018-09-12T10:28:02.760Z,14780.00
2018-09-12T10:29:02.777Z,16544.00
2018-09-12T10:30:02.776Z,16248.00
2018-09-12T10:31:02.784Z,13460.00
2018-09-12T10:32:02.987Z,15312.00
2018-09-12T10:33:02.796Z,10824.00
2018-09-12T10:34:02.798Z,8520.00
2018-09-12T10:35:02.801Z,9212.00
2018-09-12T10:36:02.806Z,10056.00
2018-09-12T10:37:02.818Z,9768.00
2018-09-12T10:38:02.818Z,8500.00
2018-09-12T10:39:02.819Z,6860.00
2018-09-12T10:40:02.832Z,7276.00
2018-09-12T10:41:02.891Z,15520.00
2018-09-12T10:42:02.829Z,24640.00
2018-09-12T10:43:02.834Z,13480.00
2018-09-12T10:44:02.840Z,27136.00
2018-09-12T10:45:02.842Z,18784.00
2018-09-12T10:46:02.844Z,14804.00
2018-09-12T10:47:02.848Z,24768.00
2018-09-12T10:48:02.853Z,24576.00
2018-09-12T10:49:02.860Z,24928.00
2018-09-12T10:50:02.861Z,25120.00
2018-09-12T10:51:02.877Z,24672.00
2018-09-12T10:52:02.881Z,24192.00
2018-09-12T10:53:02.884Z,23456.00
2018-09-12T10:54:02.889Z,23904.00
2018-09-12T10:55:02.899Z,23936.00
2018-09-12T10:56:02.912Z,23584.00
2018-09-12T10:57:02.917Z,24128.00
2018-09-12T10:58:02.922Z,24352.00
2018-09-12T10:59:02.985Z,24256.00
2018-09-12T11:00:02.942Z,24800.00
2018-09-12T11:01:02.948Z,25632.00
2018-09-12T11:02:02.963Z,26624.00
2018-09-12T11:03:02.967Z,29728.00
2018-09-12T11:04:02.974Z,31776.00
2018-09-12T11:05:02.984Z,32608.00
2018-09-12T11:06:02.994Z,31840.00
2018-09-12T11:07:03.008Z,31264.00
2018-09-12T11:08:03.018Z,31584.00
2018-09-12T11:09:03.025Z,30144.00
2018-09-12T11:10:03.240Z,30432.00
2018-09-12T11:11:03.044Z,31616.00
2018-09-12T11:12:03.061Z,31392.00
2018-09-12T11:13:03.074Z,33088.00
2018-09-12T11:14:03.283Z,34720.00
2018-09-12T11:15:03.105Z,39680.00
2018-09-12T11:16:03.101Z,11384.00
2018-09-12T11:17:03.109Z,42240.00
2018-09-12T11:18:03.124Z,39200.00
2018-09-12T11:19:03.129Z,44960.00
2018-09-12T11:20:03.179Z,37760.00
2018-09-12T11:21:03.354Z,19648.00
2018-09-12T11:22:03.160Z,48224.00
2018-09-12T11:23:03.178Z,52704.00
2018-09-12T11:24:03.249Z,59264.00
2018-09-12T11:25:03.188Z,8936.00
2018-09-12T11:26:03.197Z,9780.00
2018-09-12T11:27:03.210Z,12868.00
2018-09-12T11:28:03.214Z,18112.00
2018-09-12T11:29:03.226Z,12484.00
2018-09-12T11:30:03.229Z,12136.00
2018-09-12T11:31:03.240Z,53024.00
2018-09-12T11:32:03.447Z,58944.00
2018-09-12T11:33:03.252Z,58688.00
2018-09-12T11:34:03.296Z,56288.00
2018-09-12T11:35:03.276Z,54912.00
2018-09-12T11:36:03.276Z,53280.00
2018-09-12T11:38:03.292Z,50464.00
2018-09-12T11:39:03.309Z,49504.00
2018-09-12T11:40:03.369Z,49408.00
2018-09-12T11:41:03.522Z,47872.00
2018-09-12T11:42:03.330Z,49760.00
2018-09-12T11:43:03.340Z,48800.00
2018-09-12T11:44:03.356Z,49600.00
2018-09-12T11:45:03.365Z,52416.00
2018-09-12T11:46:03.373Z,44544.00
2018-09-12T11:47:03.382Z,14528.00
2018-09-12T11:48:03.599Z,24640.00
2018-09-12T11:49:03.431Z,23264.00
2018-09-12T11:50:03.413Z,21440.00
2018-09-12T11:51:03.425Z,20256.00
2018-09-12T11:52:03.439Z,18752.00
2018-09-12T11:53:03.444Z,12072.00
2018-09-12T11:54:03.453Z,14732.00
2018-09-12T11:55:03.464Z,14836.00
2018-09-12T11:56:03.475Z,20352.00
2018-09-12T11:57:03.686Z,20928.00
2018-09-12T11:58:03.497Z,19936.00
2018-09-12T11:59:03.704Z,24224.00
2018-09-12T12:00:03.518Z,36896.00
2018-09-12T12:01:03.525Z,43872.00
2018-09-12T12:02:03.573Z,12688.00
2018-09-12T12:03:03.545Z,33376.00
2018-09-12T12:04:03.556Z,16672.00
2018-09-12T12:05:03.571Z,17696.00
2018-09-12T12:06:03.588Z,15584.00
2018-09-12T12:07:03.591Z,14444.00
2018-09-12T12:08:03.598Z,14188.00
2018-09-12T12:09:03.608Z,10068.00
2018-09-12T12:10:03.614Z,13224.00
2018-09-12T12:11:03.623Z,10120.00
2018-09-12T12:12:03.838Z,9384.00
2018-09-12T12:13:03.644Z,10228.00
2018-09-12T12:14:03.654Z,15232.00
2018-09-12T12:15:03.657Z,18400.00
2018-09-12T12:16:03.867Z,22784.00
2018-09-12T12:17:03.672Z,29504.00
2018-09-12T12:18:03.681Z,34400.00
2018-09-12T12:19:03.688Z,32000.00
2018-09-12T12:20:03.695Z,12084.00
2018-09-12T12:21:03.703Z,56512.00
2018-09-12T12:22:03.708Z,60416.00
2018-09-12T12:23:03.731Z,57824.00
2018-09-12T12:24:03.724Z,51680.00
2018-09-12T12:25:03.732Z,56928.00
2018-09-12T12:26:03.745Z,63040.00
2018-09-12T12:27:03.748Z,64928.00
2018-09-12T12:28:03.759Z,64832.00